sensor_id;sensor_type;location;lat;lon;timestamp;P1;durP1;ratioP1;P2;durP2;ratioP2
22861;SDS011;11598;50.652;6.172;2024-02-21T00:04:04;22.40;;;8.05;;
22861;SDS011;11598;50.652;6.172;2024-02-21T00:14:05;27.65;;;9.05;;
22861;SDS011;11598;50.652;6.172;2024-02-21T00:24:06;23.30;;;8.80;;
22861;SDS011;11598;50.652;6.172;2024-02-21T00:34:06;23.50;;;8.48;;
22861;SDS011;11598;50.652;6.172;2024-02-21T00:44:07;24.13;;;7.47;;
22861;SDS011;11598;50.652;6.172;2024-02-21T00:54:07;22.85;;;7.25;;
22861;SDS011;11598;50.652;6.172;2024-02-21T01:04:08;19.17;;;7.10;;
22861;SDS011;11598;50.652;6.172;2024-02-21T01:14:09;23.65;;;8.10;;
22861;SDS011;11598;50.652;6.172;2024-02-21T01:24:11;21.95;;;6.82;;
22861;SDS011;11598;50.652;6.172;2024-02-21T01:34:11;24.17;;;7.28;;
22861;SDS011;11598;50.652;6.172;2024-02-21T01:44:12;21.80;;;7.07;;
22861;SDS011;11598;50.652;6.172;2024-02-21T01:54:13;16.42;;;6.65;;
22861;SDS011;11598;50.652;6.172;2024-02-21T02:04:15;16.85;;;7.05;;
22861;SDS011;11598;50.652;6.172;2024-02-21T02:14:16;15.27;;;6.32;;
22861;SDS011;11598;50.652;6.172;2024-02-21T02:24:16;21.70;;;6.65;;
22861;SDS011;11598;50.652;6.172;2024-02-21T02:34:17;19.65;;;6.35;;
22861;SDS011;11598;50.652;6.172;2024-02-21T02:44:17;19.20;;;6.93;;
22861;SDS011;11598;50.652;6.172;2024-02-21T02:54:18;23.02;;;6.90;;
22861;SDS011;11598;50.652;6.172;2024-02-21T03:04:18;21.42;;;6.40;;
22861;SDS011;11598;50.652;6.172;2024-02-21T03:14:19;18.50;;;5.50;;
22861;SDS011;11598;50.652;6.172;2024-02-21T03:24:19;17.58;;;6.07;;
22861;SDS011;11598;50.652;6.172;2024-02-21T03:34:21;17.67;;;6.05;;
22861;SDS011;11598;50.652;6.172;2024-02-21T03:44:21;14.73;;;5.60;;
22861;SDS011;11598;50.652;6.172;2024-02-21T03:54:21;15.50;;;5.72;;
22861;SDS011;11598;50.652;6.172;2024-02-21T04:04:22;20.58;;;5.07;;
22861;SDS011;11598;50.652;6.172;2024-02-21T04:14:22;20.05;;;5.30;;
22861;SDS011;11598;50.652;6.172;2024-02-21T04:24:23;16.60;;;4.70;;
22861;SDS011;11598;50.652;6.172;2024-02-21T04:34:23;13.73;;;4.45;;
22861;SDS011;11598;50.652;6.172;2024-02-21T04:44:23;11.50;;;3.92;;
22861;SDS011;11598;50.652;6.172;2024-02-21T04:54:24;15.98;;;4.40;;
22861;SDS011;11598;50.652;6.172;2024-02-21T05:04:24;15.25;;;3.95;;
22861;SDS011;11598;50.652;6.172;2024-02-21T05:14:27;13.75;;;4.65;;
22861;SDS011;11598;50.652;6.172;2024-02-21T05:24:28;14.35;;;4.95;;
22861;SDS011;11598;50.652;6.172;2024-02-21T05:34:29;15.25;;;3.88;;
22861;SDS011;11598;50.652;6.172;2024-02-21T05:44:30;14.15;;;4.10;;
22861;SDS011;11598;50.652;6.172;2024-02-21T05:54:30;17.48;;;5.20;;
22861;SDS011;11598;50.652;6.172;2024-02-21T06:04:31;16.77;;;6.03;;
22861;SDS011;11598;50.652;6.172;2024-02-21T06:14:31;19.73;;;6.75;;
22861;SDS011;11598;50.652;6.172;2024-02-21T06:24:31;21.65;;;7.10;;
22861;SDS011;11598;50.652;6.172;2024-02-21T06:34:32;18.70;;;6.28;;
22861;SDS011;11598;50.652;6.172;2024-02-21T06:44:32;17.95;;;5.43;;
22861;SDS011;11598;50.652;6.172;2024-02-21T06:54:36;15.55;;;5.40;;
22861;SDS011;11598;50.652;6.172;2024-02-21T07:14:40;9.93;;;4.28;;
22861;SDS011;11598;50.652;6.172;2024-02-21T07:24:40;11.18;;;4.50;;
22861;SDS011;11598;50.652;6.172;2024-02-21T07:34:40;13.48;;;4.40;;
22861;SDS011;11598;50.652;6.172;2024-02-21T07:44:41;11.90;;;4.28;;
22861;SDS011;11598;50.652;6.172;2024-02-21T07:54:41;11.85;;;4.68;;
22861;SDS011;11598;50.652;6.172;2024-02-21T08:04:42;13.27;;;4.70;;
22861;SDS011;11598;50.652;6.172;2024-02-21T08:14:42;12.50;;;4.07;;
22861;SDS011;11598;50.652;6.172;2024-02-21T08:24:44;16.02;;;4.53;;
22861;SDS011;11598;50.652;6.172;2024-02-21T08:34:44;8.27;;;3.65;;
22861;SDS011;11598;50.652;6.172;2024-02-21T08:44:44;15.40;;;3.80;;
22861;SDS011;11598;50.652;6.172;2024-02-21T08:54:45;10.82;;;3.60;;
22861;SDS011;11598;50.652;6.172;2024-02-21T09:04:45;9.90;;;3.05;;
22861;SDS011;11598;50.652;6.172;2024-02-21T09:14:46;10.35;;;3.00;;
22861;SDS011;11598;50.652;6.172;2024-02-21T09:24:49;9.93;;;3.50;;
22861;SDS011;11598;50.652;6.172;2024-02-21T09:34:49;10.25;;;3.28;;
22861;SDS011;11598;50.652;6.172;2024-02-21T09:44:50;8.95;;;3.30;;
22861;SDS011;11598;50.652;6.172;2024-02-21T09:54:50;9.88;;;3.15;;
22861;SDS011;11598;50.652;6.172;2024-02-21T10:04:52;9.20;;;3.20;;
22861;SDS011;11598;50.652;6.172;2024-02-21T10:15:05;12.18;;;3.17;;
22861;SDS011;11598;50.652;6.172;2024-02-21T10:25:07;10.73;;;3.20;;
22861;SDS011;11598;50.652;6.172;2024-02-21T10:35:10;10.68;;;3.35;;
22861;SDS011;11598;50.652;6.172;2024-02-21T10:45:13;8.73;;;3.60;;
22861;SDS011;11598;50.652;6.172;2024-02-21T10:55:21;11.00;;;3.92;;
22861;SDS011;11598;50.652;6.172;2024-02-21T11:05:32;11.88;;;3.50;;
22861;SDS011;11598;50.652;6.172;2024-02-21T11:15:34;11.82;;;4.07;;
22861;SDS011;11598;50.652;6.172;2024-02-21T11:25:34;11.53;;;4.40;;
22861;SDS011;11598;50.652;6.172;2024-02-21T11:35:36;11.85;;;3.65;;
22861;SDS011;11598;50.652;6.172;2024-02-21T11:45:36;12.85;;;4.03;;
22861;SDS011;11598;50.652;6.172;2024-02-21T11:55:37;11.88;;;3.92;;
22861;SDS011;11598;50.652;6.172;2024-02-21T12:05:38;11.40;;;3.53;;
22861;SDS011;11598;50.652;6.172;2024-02-21T12:15:39;8.35;;;3.50;;
22861;SDS011;11598;50.652;6.172;2024-02-21T12:25:40;7.00;;;2.78;;
22861;SDS011;11598;50.652;6.172;2024-02-21T12:35:41;6.45;;;2.00;;
22861;SDS011;11598;50.652;6.172;2024-02-21T12:45:41;10.55;;;2.85;;
22861;SDS011;11598;50.652;6.172;2024-02-21T12:55:41;8.93;;;2.90;;
22861;SDS011;11598;50.652;6.172;2024-02-21T13:05:42;10.18;;;2.90;;
22861;SDS011;11598;50.652;6.172;2024-02-21T13:15:42;12.15;;;3.20;;
22861;SDS011;11598;50.652;6.172;2024-02-21T13:25:43;9.80;;;2.65;;
22861;SDS011;11598;50.652;6.172;2024-02-21T13:45:56;7.40;;;2.42;;
22861;SDS011;11598;50.652;6.172;2024-02-21T13:56:02;8.07;;;2.38;;
22861;SDS011;11598;50.652;6.172;2024-02-21T14:06:03;7.57;;;2.20;;
22861;SDS011;11598;50.652;6.172;2024-02-21T14:16:09;8.98;;;2.65;;
22861;SDS011;11598;50.652;6.172;2024-02-21T14:26:11;9.98;;;2.47;;
22861;SDS011;11598;50.652;6.172;2024-02-21T14:36:12;10.13;;;2.67;;
22861;SDS011;11598;50.652;6.172;2024-02-21T14:46:12;7.82;;;2.08;;
22861;SDS011;11598;50.652;6.172;2024-02-21T14:56:13;6.75;;;2.30;;
22861;SDS011;11598;50.652;6.172;2024-02-21T15:06:14;7.43;;;1.67;;
22861;SDS011;11598;50.652;6.172;2024-02-21T15:16:15;8.05;;;1.67;;
22861;SDS011;11598;50.652;6.172;2024-02-21T15:26:16;4.57;;;1.50;;
22861;SDS011;11598;50.652;6.172;2024-02-21T15:36:17;6.25;;;1.63;;
22861;SDS011;11598;50.652;6.172;2024-02-21T15:46:18;8.05;;;1.90;;
22861;SDS011;11598;50.652;6.172;2024-02-21T15:56:18;5.80;;;1.70;;
22861;SDS011;11598;50.652;6.172;2024-02-21T16:06:19;9.80;;;1.70;;
22861;SDS011;11598;50.652;6.172;2024-02-21T16:16:20;8.75;;;2.05;;
22861;SDS011;11598;50.652;6.172;2024-02-21T16:26:21;6.63;;;1.67;;
22861;SDS011;11598;50.652;6.172;2024-02-21T16:36:22;8.30;;;1.73;;
22861;SDS011;11598;50.652;6.172;2024-02-21T16:46:23;6.18;;;1.60;;
22861;SDS011;11598;50.652;6.172;2024-02-21T16:56:23;7.60;;;2.00;;
22861;SDS011;11598;50.652;6.172;2024-02-21T17:06:23;7.25;;;2.08;;
22861;SDS011;11598;50.652;6.172;2024-02-21T17:16:24;12.55;;;2.72;;
22861;SDS011;11598;50.652;6.172;2024-02-21T17:26:24;9.30;;;2.88;;
22861;SDS011;11598;50.652;6.172;2024-02-21T17:36:26;11.98;;;2.92;;
22861;SDS011;11598;50.652;6.172;2024-02-21T17:46:26;9.52;;;2.97;;
22861;SDS011;11598;50.652;6.172;2024-02-21T17:56:27;10.63;;;3.50;;
22861;SDS011;11598;50.652;6.172;2024-02-21T18:06:27;7.70;;;3.05;;
22861;SDS011;11598;50.652;6.172;2024-02-21T18:16:27;9.85;;;3.08;;
22861;SDS011;11598;50.652;6.172;2024-02-21T18:26:29;8.45;;;3.15;;
22861;SDS011;11598;50.652;6.172;2024-02-21T18:36:30;5.82;;;2.60;;
22861;SDS011;11598;50.652;6.172;2024-02-21T18:46:31;9.20;;;2.90;;
22861;SDS011;11598;50.652;6.172;2024-02-21T18:56:31;6.68;;;2.38;;
22861;SDS011;11598;50.652;6.172;2024-02-21T19:06:31;7.35;;;2.30;;
22861;SDS011;11598;50.652;6.172;2024-02-21T19:16:32;5.03;;;1.98;;
22861;SDS011;11598;50.652;6.172;2024-02-21T19:26:32;6.13;;;2.28;;
22861;SDS011;11598;50.652;6.172;2024-02-21T19:36:32;4.53;;;1.90;;
22861;SDS011;11598;50.652;6.172;2024-02-21T19:46:33;5.47;;;1.65;;
22861;SDS011;11598;50.652;6.172;2024-02-21T19:56:36;6.53;;;1.33;;
22861;SDS011;11598;50.652;6.172;2024-02-21T20:06:36;5.03;;;1.65;;
22861;SDS011;11598;50.652;6.172;2024-02-21T20:16:36;5.03;;;1.48;;
22861;SDS011;11598;50.652;6.172;2024-02-21T20:26:37;2.95;;;1.10;;
22861;SDS011;11598;50.652;6.172;2024-02-21T20:36:43;3.25;;;0.90;;
22861;SDS011;11598;50.652;6.172;2024-02-21T20:46:44;1.88;;;0.88;;
22861;SDS011;11598;50.652;6.172;2024-02-21T20:56:44;3.47;;;0.73;;
22861;SDS011;11598;50.652;6.172;2024-02-21T21:06:45;1.98;;;0.70;;
22861;SDS011;11598;50.652;6.172;2024-02-21T21:16:45;0.80;;;0.40;;
22861;SDS011;11598;50.652;6.172;2024-02-21T21:26:46;0.90;;;0.40;;
22861;SDS011;11598;50.652;6.172;2024-02-21T21:36:46;0.38;;;0.20;;
22861;SDS011;11598;50.652;6.172;2024-02-21T21:46:47;2.20;;;0.40;;
22861;SDS011;11598;50.652;6.172;2024-02-21T21:56:49;1.10;;;0.30;;
22861;SDS011;11598;50.652;6.172;2024-02-21T22:06:49;0.47;;;0.20;;
22861;SDS011;11598;50.652;6.172;2024-02-21T22:16:50;0.55;;;0.22;;
22861;SDS011;11598;50.652;6.172;2024-02-21T22:26:51;0.65;;;0.25;;
22861;SDS011;11598;50.652;6.172;2024-02-21T22:36:51;1.63;;;0.30;;
22861;SDS011;11598;50.652;6.172;2024-02-21T22:46:51;0.30;;;0.15;;
22861;SDS011;11598;50.652;6.172;2024-02-21T22:56:52;0.85;;;0.15;;
22861;SDS011;11598;50.652;6.172;2024-02-21T23:06:52;0.57;;;0.20;;
22861;SDS011;11598;50.652;6.172;2024-02-21T23:16:52;0.30;;;0.20;;
22861;SDS011;11598;50.652;6.172;2024-02-21T23:26:53;0.55;;;0.20;;
22861;SDS011;11598;50.652;6.172;2024-02-21T23:36:53;1.40;;;0.10;;
22861;SDS011;11598;50.652;6.172;2024-02-21T23:46:54;0.30;;;0.10;;
22861;SDS011;11598;50.652;6.172;2024-02-21T23:56:54;0.30;;;0.10;;
